createdAt,value
2017-08-22T00:00:02.272Z,101459.03
2017-08-22T00:02:32.373Z,101458.53
2017-08-22T00:05:00.274Z,101453.27
2017-08-22T00:07:28.459Z,101449.77
2017-08-22T00:09:56.358Z,101447.09
2017-08-22T00:12:24.259Z,101448.77
2017-08-22T00:14:52.173Z,101441.35
2017-08-22T00:17:20.081Z,101444.03
2017-08-22T00:19:48.171Z,101444.84
2017-08-22T00:22:16.058Z,101445.70
2017-08-22T00:24:43.963Z,101437.82
2017-08-22T00:27:11.970Z,101445.33
2017-08-22T00:29:39.874Z,101442.66
2017-08-22T00:32:07.787Z,101441.34
2017-08-22T00:34:35.687Z,101447.43
2017-08-22T00:37:03.600Z,101444.72
2017-08-22T00:39:31.512Z,101448.19
2017-08-22T00:41:59.786Z,101450.86
2017-08-22T00:44:27.681Z,101455.52
2017-08-22T00:46:55.575Z,101442.84
2017-08-22T00:49:23.483Z,101446.69
2017-08-22T00:51:51.379Z,101447.57
2017-08-22T00:54:19.583Z,101454.09
2017-08-22T00:56:47.483Z,101447.11
2017-08-22T00:59:15.404Z,101448.02
2017-08-22T01:01:43.298Z,101448.88
2017-08-22T01:04:11.208Z,101452.75
2017-08-22T01:06:39.112Z,101451.48
2017-08-22T01:09:07.024Z,101452.70
2017-08-22T01:11:34.935Z,101459.62
2017-08-22T01:14:02.993Z,101460.94
2017-08-22T01:16:30.890Z,101460.45
2017-08-22T01:18:58.790Z,101468.19
2017-08-22T01:21:26.761Z,101463.39
2017-08-22T01:23:54.671Z,101469.08
2017-08-22T01:26:22.588Z,101472.58
2017-08-22T01:28:50.477Z,101465.13
2017-08-22T01:31:18.387Z,101475.62
2017-08-22T01:33:46.282Z,101466.88
2017-08-22T01:36:14.201Z,101467.74
2017-08-22T01:38:42.109Z,101468.97
2017-08-22T01:41:10.027Z,101464.23
2017-08-22T01:43:37.930Z,101469.45
2017-08-22T01:46:05.829Z,101468.55
2017-08-22T01:48:33.735Z,101460.31
2017-08-22T01:51:01.871Z,101465.08
2017-08-22T01:53:29.771Z,101467.27
2017-08-22T01:55:57.671Z,101464.68
2017-08-22T01:58:25.571Z,101466.36
2017-08-22T02:00:53.707Z,101470.31
2017-08-22T02:03:21.605Z,101457.69
2017-08-22T02:05:49.507Z,101458.88
2017-08-22T02:08:17.412Z,101458.98
2017-08-22T02:10:45.320Z,101451.41
2017-08-22T02:13:13.232Z,101448.30
2017-08-22T02:15:41.122Z,101446.13
2017-08-22T02:18:09.035Z,101447.69
2017-08-22T02:20:36.968Z,101445.48
2017-08-22T02:23:04.888Z,101451.19
2017-08-22T02:25:32.795Z,101445.45
2017-08-22T02:28:00.716Z,101451.17
2017-08-22T02:30:28.620Z,101454.20
2017-08-22T02:32:56.532Z,101452.50
2017-08-22T02:35:24.444Z,101457.30
2017-08-22T02:37:52.385Z,101450.29
2017-08-22T02:40:20.283Z,101454.05
2017-08-22T02:42:48.379Z,101450.98
2017-08-22T02:45:16.270Z,101453.16
2017-08-22T02:47:44.180Z,101457.52
2017-08-22T02:50:12.096Z,101459.24
2017-08-22T02:52:40.003Z,101460.62
2017-08-22T02:55:07.922Z,101461.99
2017-08-22T02:57:35.818Z,101461.06
2017-08-22T03:00:03.731Z,101463.14
2017-08-22T03:02:31.640Z,101463.59
2017-08-22T03:04:59.560Z,101467.13
2017-08-22T03:07:27.465Z,101456.79
2017-08-22T03:09:55.543Z,101453.20
2017-08-22T03:12:23.444Z,101454.51
2017-08-22T03:14:51.348Z,101459.41
2017-08-22T03:17:19.252Z,101459.88
2017-08-22T03:19:47.154Z,101457.48
2017-08-22T03:22:15.063Z,101465.05
2017-08-22T03:24:42.956Z,101461.19
2017-08-22T03:27:10.862Z,101462.16
2017-08-22T03:29:38.758Z,101452.63
2017-08-22T03:32:06.671Z,101450.01
2017-08-22T03:34:34.570Z,101454.42
2017-08-22T03:37:02.479Z,101460.97
2017-08-22T03:39:30.399Z,101460.11
2017-08-22T03:41:58.326Z,101451.80
2017-08-22T03:44:26.218Z,101461.83
2017-08-22T03:46:54.132Z,101452.17
2017-08-22T03:49:22.035Z,101454.72
2017-08-22T03:51:49.952Z,101456.52
2017-08-22T03:54:17.879Z,101461.72
2017-08-22T03:56:45.948Z,101462.56
2017-08-22T03:59:13.837Z,101465.55
2017-08-22T04:01:41.743Z,101461.71
2017-08-22T04:04:09.660Z,101460.75
2017-08-22T04:06:37.557Z,101458.52
2017-08-22T04:09:05.468Z,101457.70
2017-08-22T04:11:33.368Z,101457.14
2017-08-22T04:14:01.412Z,101457.65
2017-08-22T04:16:29.335Z,101456.25
2017-08-22T04:18:57.239Z,101456.72
2017-08-22T04:21:25.146Z,101451.02
2017-08-22T04:23:53.357Z,101455.78
2017-08-22T04:26:21.272Z,101453.27
2017-08-22T04:28:49.174Z,101454.18
2017-08-22T04:31:17.078Z,101456.83
2017-08-22T04:33:44.974Z,101458.65
2017-08-22T04:36:12.883Z,101465.33
2017-08-22T04:38:40.792Z,101459.34
2017-08-22T04:41:08.901Z,101459.58
2017-08-22T04:43:36.811Z,101457.19
2017-08-22T04:46:04.734Z,101454.76
2017-08-22T04:48:32.625Z,101453.99
2017-08-22T04:51:00.667Z,101453.70
2017-08-22T04:53:28.565Z,101454.67
2017-08-22T04:55:56.470Z,101455.30
2017-08-22T04:58:24.373Z,101445.33
2017-08-22T05:00:52.279Z,101448.08
2017-08-22T05:03:20.182Z,101454.30
2017-08-22T05:05:48.087Z,101453.56
2017-08-22T05:08:15.991Z,101452.68
2017-08-22T05:10:43.891Z,101457.11
2017-08-22T05:13:11.801Z,101457.59
2017-08-22T05:15:39.707Z,101451.91
2017-08-22T05:18:07.607Z,101451.48
2017-08-22T05:20:35.516Z,101446.67
2017-08-22T05:23:03.432Z,101453.28
2017-08-22T05:25:31.324Z,101445.75
2017-08-22T05:27:59.238Z,101443.80
2017-08-22T05:30:27.148Z,101446.44
2017-08-22T05:32:55.047Z,101445.79
2017-08-22T05:35:22.949Z,101451.28
2017-08-22T05:37:50.846Z,101447.09
2017-08-22T05:40:18.765Z,101448.70
2017-08-22T05:42:46.676Z,101452.66
2017-08-22T05:45:14.582Z,101445.30
2017-08-22T05:47:42.803Z,101450.81
2017-08-22T05:50:10.713Z,101454.55
2017-08-22T05:52:38.624Z,101445.95
2017-08-22T05:55:06.987Z,101448.90
2017-08-22T05:57:35.348Z,101455.97
2017-08-22T06:00:03.700Z,101447.36
2017-08-22T06:02:32.047Z,101446.44
2017-08-22T06:05:00.402Z,101447.02
2017-08-22T06:07:28.757Z,101451.27
2017-08-22T06:09:57.114Z,101444.78
2017-08-22T06:12:25.606Z,101437.85
2017-08-22T06:14:53.951Z,101433.73
2017-08-22T06:17:22.303Z,101432.26
2017-08-22T06:19:51.003Z,101434.52
2017-08-22T06:22:19.352Z,101437.42
2017-08-22T06:24:47.967Z,101443.06
2017-08-22T06:27:16.316Z,101442.34
2017-08-22T06:29:44.666Z,101442.65
2017-08-22T06:32:13.022Z,101446.44
2017-08-22T06:34:41.446Z,101437.02
2017-08-22T06:37:09.803Z,101433.05
2017-08-22T06:39:38.150Z,101425.84
2017-08-22T06:42:06.735Z,101437.34
2017-08-22T06:44:35.267Z,101434.98
2017-08-22T06:47:03.603Z,101431.94
2017-08-22T06:49:31.952Z,101428.50
2017-08-22T06:52:00.307Z,101430.92
2017-08-22T06:54:28.646Z,101447.63
2017-08-22T06:56:56.994Z,101445.27
2017-08-22T06:59:25.335Z,101449.56
2017-08-22T07:01:53.707Z,101451.02
2017-08-22T07:04:22.049Z,101443.91
2017-08-22T07:06:50.409Z,101444.56
2017-08-22T07:09:18.764Z,101441.66
2017-08-22T07:11:47.272Z,101436.30
2017-08-22T07:14:15.179Z,101439.84
2017-08-22T07:16:43.539Z,101444.86
2017-08-22T07:19:11.967Z,101437.13
2017-08-22T07:21:40.303Z,101435.61
2017-08-22T07:24:08.700Z,101431.21
2017-08-22T07:26:37.044Z,101440.16
2017-08-22T07:29:05.408Z,101434.41
2017-08-22T07:31:33.748Z,101427.92
2017-08-22T07:34:02.104Z,101423.67
2017-08-22T07:36:30.461Z,101427.89
2017-08-22T07:38:58.811Z,101421.86
2017-08-22T07:41:27.155Z,101417.47
2017-08-22T07:43:55.517Z,101415.63
2017-08-22T07:46:23.925Z,101415.89
2017-08-22T07:48:52.288Z,101417.75
2017-08-22T07:51:20.635Z,101417.48
2017-08-22T07:53:49.292Z,101421.83
2017-08-22T07:56:17.649Z,101422.94
2017-08-22T07:58:45.996Z,101428.70
2017-08-22T08:01:14.347Z,101423.92
2017-08-22T08:03:42.704Z,101426.73
2017-08-22T08:06:11.045Z,101423.29
2017-08-22T08:08:39.386Z,101436.57
2017-08-22T08:11:07.753Z,101444.97
2017-08-22T08:13:36.105Z,101437.78
2017-08-22T08:16:04.611Z,101437.95
2017-08-22T08:18:32.960Z,101436.86
2017-08-22T08:21:01.316Z,101438.97
2017-08-22T08:23:29.661Z,101442.59
2017-08-22T08:25:58.012Z,101440.20
2017-08-22T08:28:26.376Z,101453.55
2017-08-22T08:30:54.721Z,101453.15
2017-08-22T08:33:23.078Z,101452.91
2017-08-22T08:35:51.440Z,101452.35
2017-08-22T08:38:19.797Z,101448.27
2017-08-22T08:40:48.452Z,101453.32
2017-08-22T08:43:16.979Z,101438.83
2017-08-22T08:45:45.332Z,101452.00
2017-08-22T08:48:13.688Z,101452.12
2017-08-22T08:50:42.048Z,101450.44
2017-08-22T08:53:10.402Z,101443.13
2017-08-22T08:55:38.767Z,101450.89
2017-08-22T08:58:07.117Z,101439.83
2017-08-22T09:00:35.484Z,101440.05
2017-08-22T09:03:03.839Z,101433.13
2017-08-22T09:05:32.192Z,101434.69
2017-08-22T09:08:00.544Z,101433.58
2017-08-22T09:10:29.268Z,101431.92
2017-08-22T09:12:57.626Z,101427.17
2017-08-22T09:15:25.980Z,101426.82
2017-08-22T09:17:54.653Z,101435.60
2017-08-22T09:20:23.027Z,101428.91
2017-08-22T09:22:51.413Z,101433.50
2017-08-22T09:25:19.768Z,101431.70
2017-08-22T09:27:48.129Z,101426.67
2017-08-22T09:30:16.474Z,101427.57
2017-08-22T09:32:45.133Z,101427.64
2017-08-22T09:35:13.481Z,101427.93
2017-08-22T09:37:42.054Z,101426.06
2017-08-22T09:40:10.403Z,101417.45
2017-08-22T09:42:38.761Z,101412.42
2017-08-22T09:45:07.186Z,101413.04
2017-08-22T09:47:35.616Z,101410.56
2017-08-22T09:50:03.989Z,101417.78
2017-08-22T09:52:32.344Z,101412.84
2017-08-22T09:55:00.694Z,101413.83
2017-08-22T09:57:29.049Z,101418.36
2017-08-22T09:59:57.416Z,101415.39
2017-08-22T10:02:25.773Z,101415.61
2017-08-22T10:04:54.530Z,101411.39
2017-08-22T10:07:22.874Z,101408.38
2017-08-22T10:09:51.282Z,101398.47
2017-08-22T10:12:19.634Z,101405.66
2017-08-22T10:15:18.259Z,101406.70
2017-08-22T10:17:46.602Z,101397.80
2017-08-22T10:20:14.943Z,101402.30
2017-08-22T10:22:43.305Z,101397.59
2017-08-22T10:25:11.651Z,101395.63
2017-08-22T10:27:40.039Z,101395.85
2017-08-22T10:30:08.390Z,101398.75
2017-08-22T10:32:36.761Z,101393.97
2017-08-22T10:35:05.117Z,101388.72
2017-08-22T10:37:33.560Z,101384.18
2017-08-22T10:40:01.903Z,101384.02
2017-08-22T10:42:30.440Z,101389.55
2017-08-22T10:44:58.793Z,101375.70
2017-08-22T10:47:27.135Z,101374.79
2017-08-22T10:49:55.483Z,101366.05
2017-08-22T10:52:23.823Z,101366.50
2017-08-22T10:54:52.182Z,101369.42
2017-08-22T10:57:20.532Z,101361.34
2017-08-22T10:59:48.882Z,101357.29
2017-08-22T11:02:17.224Z,101356.22
2017-08-22T11:04:45.631Z,101360.88
2017-08-22T11:07:13.981Z,101359.11
2017-08-22T11:09:42.520Z,101362.03
2017-08-22T11:12:10.873Z,101363.83
2017-08-22T11:14:39.225Z,101371.67
2017-08-22T11:17:07.581Z,101357.35
2017-08-22T11:19:35.919Z,101370.27
2017-08-22T11:22:04.285Z,101371.52
2017-08-22T11:24:32.637Z,101365.88
2017-08-22T11:27:00.990Z,101362.08
2017-08-22T11:29:29.349Z,101367.28
2017-08-22T11:31:57.720Z,101365.56
2017-08-22T11:34:26.086Z,101357.30
2017-08-22T11:36:54.476Z,101358.35
2017-08-22T11:39:22.821Z,101353.38
2017-08-22T11:41:51.182Z,101363.40
2017-08-22T11:44:19.559Z,101368.00
2017-08-22T11:46:47.909Z,101370.80
2017-08-22T11:49:16.268Z,101367.12
2017-08-22T11:51:44.632Z,101374.52
2017-08-22T11:54:13.006Z,101369.91
2017-08-22T11:56:41.357Z,101370.86
2017-08-22T11:59:09.717Z,101375.05
2017-08-22T12:01:38.060Z,101371.81
2017-08-22T12:04:06.416Z,101377.27
2017-08-22T12:06:34.769Z,101371.22
2017-08-22T12:09:03.115Z,101370.92
2017-08-22T12:11:31.477Z,101373.09
2017-08-22T12:13:59.852Z,101374.59
2017-08-22T12:16:28.204Z,101381.16
2017-08-22T12:18:56.875Z,101381.78
2017-08-22T12:21:25.236Z,101375.61
2017-08-22T12:23:53.595Z,101376.60
2017-08-22T12:26:21.954Z,101382.38
2017-08-22T12:28:50.452Z,101377.00
2017-08-22T12:31:18.957Z,101374.36
2017-08-22T12:33:47.309Z,101374.66
2017-08-22T12:36:15.655Z,101382.65
2017-08-22T12:38:44.008Z,101375.03
2017-08-22T12:41:12.365Z,101372.06
2017-08-22T12:43:40.719Z,101368.23
2017-08-22T12:46:09.076Z,101376.80
2017-08-22T12:48:37.427Z,101368.20
2017-08-22T12:51:05.781Z,101361.45
2017-08-22T12:53:34.261Z,101361.30
2017-08-22T12:56:02.599Z,101355.02
2017-08-22T12:58:30.948Z,101362.69
2017-08-22T13:00:59.308Z,101350.45
2017-08-22T13:03:27.661Z,101368.30
2017-08-22T13:05:56.403Z,101364.00
2017-08-22T13:08:24.758Z,101359.20
2017-08-22T13:10:53.120Z,101357.89
2017-08-22T13:13:21.475Z,101357.22
2017-08-22T13:15:49.828Z,101356.45
2017-08-22T13:18:18.237Z,101356.61
2017-08-22T13:20:46.845Z,101350.99
2017-08-22T13:23:15.196Z,101358.22
2017-08-22T13:25:43.578Z,101348.45
2017-08-22T13:28:11.931Z,101349.31
2017-08-22T13:30:40.286Z,101352.59
2017-08-22T13:33:08.652Z,101350.08
2017-08-22T13:35:37.005Z,101345.93
2017-08-22T13:38:05.390Z,101347.77
2017-08-22T13:40:33.727Z,101348.45
2017-08-22T13:43:02.079Z,101336.33
2017-08-22T13:45:30.440Z,101350.17
2017-08-22T13:47:58.800Z,101346.88
2017-08-22T13:50:27.158Z,101348.28
2017-08-22T13:52:55.516Z,101349.90
2017-08-22T13:55:23.865Z,101350.00
2017-08-22T13:57:52.224Z,101353.56
2017-08-22T14:00:20.566Z,101344.19
2017-08-22T14:02:49.098Z,101348.61
2017-08-22T14:05:17.453Z,101346.37
2017-08-22T14:07:45.808Z,101353.45
2017-08-22T14:10:14.159Z,101350.61
2017-08-22T14:12:42.516Z,101348.11
2017-08-22T14:15:10.885Z,101349.33
2017-08-22T14:17:39.227Z,101345.38
2017-08-22T14:20:07.575Z,101349.23
2017-08-22T14:22:35.932Z,101347.92
2017-08-22T14:25:04.283Z,101342.42
2017-08-22T14:27:32.644Z,101350.36
2017-08-22T14:30:01.008Z,101342.14
2017-08-22T14:32:29.363Z,101351.06
2017-08-22T14:34:57.982Z,101350.30
2017-08-22T14:37:26.330Z,101345.21
2017-08-22T14:39:54.675Z,101338.43
2017-08-22T14:42:23.037Z,101347.84
2017-08-22T14:44:51.392Z,101345.59
2017-08-22T14:47:19.743Z,101346.35
2017-08-22T14:49:48.083Z,101333.91
2017-08-22T14:52:16.827Z,101343.36
2017-08-22T14:54:45.170Z,101340.15
2017-08-22T14:57:13.541Z,101334.22
2017-08-22T14:59:41.883Z,101337.12
2017-08-22T15:02:10.253Z,101341.41
2017-08-22T15:04:38.586Z,101337.64
2017-08-22T15:07:07.068Z,101328.72
2017-08-22T15:09:35.688Z,101332.11
2017-08-22T15:12:04.040Z,101330.59
2017-08-22T15:14:32.396Z,101325.13
2017-08-22T15:17:00.748Z,101324.91
2017-08-22T15:19:29.098Z,101322.73
2017-08-22T15:21:57.450Z,101320.81
2017-08-22T15:24:25.808Z,101324.30
2017-08-22T15:26:54.161Z,101320.74
2017-08-22T15:29:22.538Z,101327.03
2017-08-22T15:31:50.894Z,101325.19
2017-08-22T15:34:19.648Z,101325.61
2017-08-22T15:36:48.005Z,101328.97
2017-08-22T15:39:16.355Z,101326.84
2017-08-22T15:41:44.728Z,101321.91
2017-08-22T15:44:13.067Z,101326.77
2017-08-22T15:46:41.448Z,101322.44
2017-08-22T15:49:09.813Z,101317.20
2017-08-22T15:51:38.164Z,101318.52
2017-08-22T15:54:06.509Z,101322.14
2017-08-22T15:56:34.972Z,101321.56
2017-08-22T15:59:03.325Z,101322.14
2017-08-22T16:01:31.689Z,101320.66
2017-08-22T16:04:00.042Z,101328.53
2017-08-22T16:06:28.482Z,101317.76
2017-08-22T16:08:56.837Z,101320.52
2017-08-22T16:11:25.547Z,101311.07
2017-08-22T16:13:53.890Z,101313.43
2017-08-22T16:16:22.245Z,101309.43
2017-08-22T16:18:50.599Z,101304.48
2017-08-22T16:21:18.948Z,101308.16
2017-08-22T16:23:47.301Z,101313.20
2017-08-22T16:26:15.653Z,101312.95
2017-08-22T16:28:44.010Z,101312.91
2017-08-22T16:31:12.627Z,101310.64
2017-08-22T16:33:40.978Z,101309.36
2017-08-22T16:36:09.340Z,101313.03
2017-08-22T16:38:38.036Z,101311.66
2017-08-22T16:41:06.383Z,101315.70
2017-08-22T16:43:34.738Z,101313.52
2017-08-22T16:46:03.082Z,101315.44
2017-08-22T16:48:31.702Z,101309.35
2017-08-22T16:51:00.050Z,101311.25
2017-08-22T16:53:28.498Z,101311.25
2017-08-22T16:55:56.862Z,101311.32
2017-08-22T16:58:25.202Z,101311.02
2017-08-22T17:00:53.557Z,101303.45
2017-08-22T17:03:21.908Z,101306.98
2017-08-22T17:05:50.422Z,101304.55
2017-08-22T17:08:18.759Z,101308.92
2017-08-22T17:10:47.109Z,101310.72
2017-08-22T17:13:15.459Z,101312.44
2017-08-22T17:15:43.804Z,101310.58
2017-08-22T17:18:12.164Z,101316.41
2017-08-22T17:20:40.964Z,101308.03
2017-08-22T17:23:09.340Z,101314.13
2017-08-22T17:25:37.683Z,101313.64
2017-08-22T17:28:06.048Z,101317.16
2017-08-22T17:30:34.398Z,101315.88
2017-08-22T17:33:03.050Z,101312.80
2017-08-22T17:35:31.395Z,101320.38
2017-08-22T17:37:59.747Z,101316.94
2017-08-22T17:40:28.090Z,101323.66
2017-08-22T17:42:56.630Z,101324.47
2017-08-22T17:45:24.990Z,101328.99
2017-08-22T17:47:53.340Z,101325.95
2017-08-22T17:50:21.699Z,101332.09
2017-08-22T17:52:50.060Z,101329.96
2017-08-22T17:55:18.437Z,101327.31
2017-08-22T17:57:46.776Z,101323.99
2017-08-22T18:00:15.145Z,101323.55
2017-08-22T18:02:43.539Z,101328.94
2017-08-22T18:05:11.900Z,101335.59
2017-08-22T18:07:40.234Z,101332.19
2017-08-22T18:10:08.818Z,101336.16
2017-08-22T18:12:37.177Z,101339.31
2017-08-22T18:15:05.773Z,101336.25
2017-08-22T18:17:34.119Z,101332.73
2017-08-22T18:20:02.469Z,101334.11
2017-08-22T18:22:30.825Z,101340.72
2017-08-22T18:24:59.428Z,101341.16
2017-08-22T18:27:27.792Z,101340.67
2017-08-22T18:29:56.148Z,101342.94
2017-08-22T18:32:24.508Z,101350.46
2017-08-22T18:34:52.851Z,101347.38
2017-08-22T18:37:21.228Z,101350.45
2017-08-22T18:39:49.570Z,101349.11
2017-08-22T18:42:18.036Z,101353.06
2017-08-22T18:44:46.387Z,101354.37
2017-08-22T18:47:14.749Z,101358.78
2017-08-22T18:49:43.192Z,101357.02
2017-08-22T18:52:11.535Z,101362.33
2017-08-22T18:54:39.893Z,101361.06
2017-08-22T18:57:08.239Z,101360.19
2017-08-22T18:59:36.604Z,101365.52
2017-08-22T19:02:04.958Z,101366.42
2017-08-22T19:04:33.325Z,101367.30
2017-08-22T19:07:01.748Z,101373.91
2017-08-22T19:09:30.832Z,101367.76
2017-08-22T19:11:59.185Z,101369.95
2017-08-22T19:14:27.541Z,101365.97
2017-08-22T19:16:55.904Z,101363.28
2017-08-22T19:19:24.252Z,101357.16
2017-08-22T19:21:52.611Z,101359.80
2017-08-22T19:24:20.963Z,101358.87
2017-08-22T19:26:49.411Z,101351.89
2017-08-22T19:29:17.755Z,101359.88
2017-08-22T19:31:46.113Z,101352.44
2017-08-22T19:34:14.469Z,101354.68
2017-08-22T19:36:42.820Z,101355.14
2017-08-22T19:39:11.176Z,101350.34
2017-08-22T19:41:39.752Z,101347.75
2017-08-22T19:44:08.105Z,101349.56
2017-08-22T19:46:36.457Z,101349.13
2017-08-22T19:49:04.824Z,101350.00
2017-08-22T19:51:33.164Z,101349.56
2017-08-22T19:54:01.559Z,101345.19
2017-08-22T19:56:29.899Z,101347.81
2017-08-22T19:58:58.295Z,101350.47
2017-08-22T20:01:26.651Z,101350.05
2017-08-22T20:03:55.020Z,101352.67
2017-08-22T20:06:23.369Z,101350.94
2017-08-22T20:08:51.745Z,101351.36
2017-08-22T20:11:20.124Z,101347.39
2017-08-22T20:13:48.603Z,101349.59
2017-08-22T20:16:16.944Z,101344.34
2017-08-22T20:18:45.355Z,101346.07
2017-08-22T20:21:13.717Z,101346.07
2017-08-22T20:23:42.069Z,101346.05
2017-08-22T20:26:10.429Z,101343.88
2017-08-22T20:28:38.884Z,101344.27
2017-08-22T20:31:07.508Z,101351.70
2017-08-22T20:33:35.866Z,101346.42
2017-08-22T20:36:04.238Z,101352.09
2017-08-22T20:38:32.580Z,101349.87
2017-08-22T20:41:01.191Z,101342.85
2017-08-22T20:43:29.581Z,101344.17
2017-08-22T20:45:57.944Z,101338.44
2017-08-22T20:48:26.313Z,101335.80
2017-08-22T20:50:54.654Z,101338.41
2017-08-22T20:53:23.017Z,101337.09
2017-08-22T20:55:51.374Z,101337.51
2017-08-22T20:58:19.738Z,101337.94
2017-08-22T21:00:48.818Z,101339.67
2017-08-22T21:03:17.176Z,101339.67
2017-08-22T21:05:45.532Z,101338.76
2017-08-22T21:08:14.331Z,101332.59
2017-08-22T21:10:42.762Z,101335.22
2017-08-22T21:13:11.126Z,101334.77
2017-08-22T21:15:39.487Z,101328.59
2017-08-22T21:18:07.835Z,101335.63
2017-08-22T21:20:36.183Z,101334.73
2017-08-22T21:23:04.548Z,101337.77
2017-08-22T21:25:32.905Z,101334.69
2017-08-22T21:28:01.722Z,101336.44
2017-08-22T21:30:30.090Z,101339.89
2017-08-22T21:32:58.450Z,101327.62
2017-08-22T21:35:27.431Z,101336.81
2017-08-22T21:37:55.782Z,101331.53
2017-08-22T21:40:24.131Z,101333.25
2017-08-22T21:42:52.493Z,101329.72
2017-08-22T21:45:20.835Z,101336.30
2017-08-22T21:47:49.209Z,101328.82
2017-08-22T21:50:17.604Z,101323.12
2017-08-22T21:52:45.956Z,101322.63
2017-08-22T21:55:14.309Z,101327.84
2017-08-22T21:57:42.660Z,101328.23
2017-08-22T22:00:11.017Z,101332.13
2017-08-22T22:02:39.377Z,101330.83
2017-08-22T22:05:07.787Z,101326.88
2017-08-22T22:07:36.324Z,101328.59
2017-08-22T22:10:04.671Z,101325.50
2017-08-22T22:12:33.014Z,101331.14
2017-08-22T22:15:01.377Z,101334.18
2017-08-22T22:17:29.728Z,101337.21
2017-08-22T22:19:58.074Z,101340.25
2017-08-22T22:22:26.435Z,101338.91
2017-08-22T22:24:54.804Z,101338.00
2017-08-22T22:27:23.142Z,101334.02
2017-08-22T22:29:51.498Z,101331.81
2017-08-22T22:32:19.861Z,101330.06
2017-08-22T22:34:48.299Z,101333.52
2017-08-22T22:37:16.640Z,101330.86
2017-08-22T22:39:45.170Z,101325.15
2017-08-22T22:42:13.546Z,101332.55
2017-08-22T22:44:41.905Z,101333.83
2017-08-22T22:47:10.255Z,101329.89
2017-08-22T22:49:38.611Z,101330.73
2017-08-22T22:52:06.967Z,101326.80
2017-08-22T22:54:35.581Z,101331.59
2017-08-22T22:57:03.950Z,101328.91
2017-08-22T22:59:32.290Z,101331.59
2017-08-22T23:02:00.924Z,101330.23
2017-08-22T23:04:29.273Z,101329.83
2017-08-22T23:06:57.638Z,101329.78
2017-08-22T23:09:25.995Z,101328.87
2017-08-22T23:11:54.507Z,101327.55
2017-08-22T23:14:22.400Z,101334.91
2017-08-22T23:16:50.303Z,101328.34
2017-08-22T23:19:18.222Z,101333.25
2017-08-22T23:21:46.113Z,101329.63
2017-08-22T23:24:14.068Z,101331.86
2017-08-22T23:26:41.970Z,101326.62
2017-08-22T23:29:10.152Z,101325.79
2017-08-22T23:31:38.060Z,101325.31
2017-08-22T23:34:06.056Z,101327.09
2017-08-22T23:36:34.006Z,101330.08
2017-08-22T23:39:01.948Z,101334.85
2017-08-22T23:41:29.864Z,101333.88
2017-08-22T23:43:57.766Z,101334.69
2017-08-22T23:46:25.663Z,101337.20
2017-08-22T23:48:53.772Z,101335.00
2017-08-22T23:51:21.682Z,101341.56
2017-08-22T23:53:49.583Z,101336.67
2017-08-22T23:56:17.498Z,101329.66
2017-08-22T23:58:45.417Z,101328.80
